Time;durP1;ratioP1;P1;durP2;ratioP2;P2;SDS_P1;SDS_P2;PMS_P1;PMS_P2;Temp;Humidity;BMP_temperature;BMP_pressure;BME280_temperature;BME280_humidity;BME280_pressure;Samples;Min_cycle;Max_cycle;Signal;HPM_P1;HPM_P2
2022/10/12 00:02:17;;;;;;;1.00;0.82;;;6.70;99.90;;;;;;5040740;28;20091;-76
2022/10/12 00:04:44;;;;;;;0.88;0.80;;;6.70;99.90;;;;;;5040613;28;20045;-76
2022/10/12 00:07:11;;;;;;;2.83;1.10;;;6.70;99.90;;;;;;5040987;28;20045;-76
2022/10/12 00:09:38;;;;;;;1.92;0.90;;;6.70;99.90;;;;;;5037102;28;20048;-76
2022/10/12 00:12:05;;;;;;;1.40;1.10;;;6.60;99.90;;;;;;5035999;28;20081;-76
2022/10/12 00:14:35;;;;;;;1.27;0.88;;;6.70;99.90;;;;;;5039882;28;20049;-76
2022/10/12 00:17:02;;;;;;;1.55;1.02;;;6.60;99.90;;;;;;5038439;28;20389;-77
2022/10/12 00:19:29;;;;;;;1.17;0.85;;;6.60;99.90;;;;;;5040724;28;20474;-77
2022/10/12 00:21:56;;;;;;;1.83;1.00;;;6.60;99.90;;;;;;5039687;28;20045;-77
2022/10/12 00:24:24;;;;;;;1.98;1.02;;;6.50;99.90;;;;;;5036617;28;20103;-76
2022/10/12 00:26:51;;;;;;;1.75;1.33;;;6.50;99.90;;;;;;5038673;28;20122;-76
2022/10/12 00:29:17;;;;;;;1.00;0.77;;;6.50;99.90;;;;;;5022615;28;20057;-76
2022/10/12 00:31:44;;;;;;;2.10;1.13;;;6.50;99.90;;;;;;5002558;28;20220;-76
2022/10/12 00:34:11;;;;;;;1.88;0.90;;;6.50;99.90;;;;;;5038705;28;20056;-76
2022/10/12 00:36:38;;;;;;;1.65;0.98;;;6.50;99.90;;;;;;5039512;28;20342;-76
2022/10/12 00:39:06;;;;;;;1.98;1.08;;;6.50;99.90;;;;;;5023138;28;20045;-76
2022/10/12 00:41:36;;;;;;;1.38;0.77;;;6.50;99.90;;;;;;5018819;28;20830;-76
2022/10/12 00:44:03;;;;;;;0.65;0.60;;;6.50;99.90;;;;;;5037338;28;20184;-76
2022/10/12 00:46:34;;;;;;;1.38;0.80;;;6.40;99.90;;;;;;5038232;28;20472;-76
2022/10/12 00:49:16;;;;;;;1.42;0.80;;;6.30;99.90;;;;;;5040351;28;20051;-76
2022/10/12 00:51:45;;;;;;;2.63;1.38;;;6.30;99.90;;;;;;5017315;28;20049;-76
2022/10/12 00:54:15;;;;;;;1.30;0.90;;;6.30;99.90;;;;;;5021459;28;20045;-76
2022/10/12 00:56:42;;;;;;;1.42;0.93;;;6.30;99.90;;;;;;5005877;28;20473;-76
2022/10/12 00:59:12;;;;;;;0.90;0.65;;;6.40;99.90;;;;;;5038763;28;20044;-76
2022/10/12 01:01:39;;;;;;;1.65;0.95;;;6.40;99.90;;;;;;5034376;28;20090;-76
2022/10/12 01:04:06;;;;;;;1.70;1.13;;;6.40;99.90;;;;;;5054296;28;20049;-76
2022/10/12 01:06:33;;;;;;;1.63;0.90;;;6.30;99.90;;;;;;5005201;28;20123;-76
2022/10/12 01:09:00;;;;;;;1.25;0.82;;;6.30;99.90;;;;;;5039752;28;20063;-76
2022/10/12 01:11:26;;;;;;;1.33;0.80;;;6.30;99.90;;;;;;5002189;28;20056;-76
2022/10/12 01:13:54;;;;;;;0.73;0.70;;;6.30;99.90;;;;;;5054378;28;20057;-76
2022/10/12 01:16:32;;;;;;;1.20;0.90;;;6.30;99.90;;;;;;5038220;28;20053;-76
2022/10/12 01:19:05;;;;;;;1.63;0.85;;;6.30;99.90;;;;;;5038819;28;20102;-76
2022/10/12 01:21:33;;;;;;;1.10;0.88;;;6.30;99.90;;;;;;5038893;28;20053;-77
2022/10/12 01:24:15;;;;;;;1.00;0.88;;;6.20;99.90;;;;;;5002866;28;20388;-76
2022/10/12 01:27:12;;;;;;;0.95;0.60;;;6.20;99.90;;;;;;5037885;28;20463;-76
2022/10/12 01:29:48;;;;;;;1.77;0.70;;;6.30;99.90;;;;;;5036228;28;21297;-76
2022/10/12 01:32:41;;;;;;;1.35;0.90;;;6.30;99.90;;;;;;5035899;28;20455;-76
2022/10/12 01:35:34;;;;;;;0.80;0.60;;;6.20;99.90;;;;;;5052129;28;20049;-76
2022/10/12 01:38:25;;;;;;;1.40;1.00;;;6.20;99.90;;;;;;5004849;28;20128;-76
2022/10/12 01:40:55;;;;;;;1.67;0.85;;;6.10;99.90;;;;;;5043869;28;20048;-76
2022/10/12 01:43:22;;;;;;;1.58;0.90;;;6.10;99.90;;;;;;5042781;28;20061;-76
2022/10/12 01:45:49;;;;;;;1.42;0.90;;;6.10;99.90;;;;;;5026465;28;20060;-77
2022/10/12 01:48:16;;;;;;;1.17;0.93;;;6.10;99.90;;;;;;5027738;28;20136;-78
2022/10/12 01:50:51;;;;;;;0.95;0.65;;;6.10;99.90;;;;;;5010665;28;20049;-77
2022/10/12 01:53:24;;;;;;;0.95;0.75;;;6.10;99.90;;;;;;5043782;28;20049;-78
2022/10/12 01:55:56;;;;;;;0.77;0.70;;;6.10;99.90;;;;;;5045436;28;20044;-78
2022/10/12 01:58:49;;;;;;;0.85;0.73;;;6.00;99.90;;;;;;5027368;28;20072;-78
2022/10/12 02:01:38;;;;;;;0.90;0.73;;;6.00;99.90;;;;;;5043634;28;20049;-78
2022/10/12 02:04:10;;;;;;;1.42;0.80;;;5.90;99.90;;;;;;5043440;28;20918;-78
2022/10/12 02:06:44;;;;;;;1.10;0.70;;;5.90;99.90;;;;;;5042640;28;20491;-75
2022/10/12 02:09:23;;;;;;;0.60;0.60;;;5.80;99.90;;;;;;5011330;28;20049;-75
2022/10/12 02:11:50;;;;;;;0.68;0.60;;;5.80;99.90;;;;;;5023383;28;20774;-77
2022/10/12 02:14:21;;;;;;;0.80;0.70;;;5.70;99.90;;;;;;5026934;28;20067;-78
2022/10/12 02:16:58;;;;;;;1.00;0.70;;;5.70;99.90;;;;;;5027173;28;20045;-78
2022/10/12 02:19:26;;;;;;;0.95;0.70;;;5.70;99.90;;;;;;5026962;28;20492;-78
2022/10/12 02:21:54;;;;;;;1.33;0.80;;;5.70;99.90;;;;;;5026762;28;20526;-78
2022/10/12 02:24:21;;;;;;;1.10;0.73;;;5.60;99.90;;;;;;5024166;28;20061;-78
2022/10/12 02:26:48;;;;;;;0.68;0.55;;;5.60;99.90;;;;;;5039442;28;20045;-77
2022/10/12 02:29:18;;;;;;;1.70;0.90;;;5.60;99.90;;;;;;5043892;28;20553;-78
2022/10/12 02:31:52;;;;;;;1.15;0.88;;;5.60;99.90;;;;;;5027081;28;20124;-78
2022/10/12 02:34:22;;;;;;;1.30;0.70;;;5.60;99.90;;;;;;5043399;28;20059;-78
2022/10/12 02:36:55;;;;;;;1.08;0.70;;;5.60;99.90;;;;;;5026516;28;20045;-78
2022/10/12 02:39:24;;;;;;;;;;;5.50;99.90;;;;;;5012263;28;20052;-78
2022/10/12 02:41:52;;;;;;;0.88;0.70;;;5.50;99.90;;;;;;5044848;28;20525;-78
2022/10/12 02:44:22;;;;;;;1.42;1.00;;;5.50;99.90;;;;;;5014478;28;20053;-78
2022/10/12 02:46:49;;;;;;;0.80;0.65;;;5.50;99.90;;;;;;5030658;28;20056;-77
2022/10/12 02:49:16;;;;;;;1.00;0.80;;;5.50;99.90;;;;;;5014375;28;20049;-75
2022/10/12 02:51:43;;;;;;;0.65;0.65;;;5.50;99.90;;;;;;5028707;28;20041;-75
2022/10/12 02:54:09;;;;;;;1.27;1.08;;;5.50;99.90;;;;;;5030038;28;20548;-76
2022/10/12 02:56:44;;;;;;;1.77;1.08;;;5.60;99.90;;;;;;5044973;28;20120;-76
2022/10/12 02:59:12;;;;;;;1.20;0.90;;;5.60;99.90;;;;;;5014443;28;20059;-78
2022/10/12 03:01:39;;;;;;;1.60;1.00;;;5.60;99.90;;;;;;5045982;28;20044;-77
2022/10/12 03:04:05;;;;;;;1.45;0.80;;;5.60;99.90;;;;;;5027451;28;20200;-77
2022/10/12 03:06:34;;;;;;;1.70;1.10;;;5.60;99.90;;;;;;5027186;28;20194;-77
2022/10/12 03:09:01;;;;;;;1.90;1.10;;;5.60;99.90;;;;;;5046302;28;20045;-77
2022/10/12 03:11:28;;;;;;;2.22;1.33;;;5.60;99.90;;;;;;5027092;28;20136;-77
2022/10/12 03:13:54;;;;;;;1.23;1.00;;;5.70;99.90;;;;;;5011964;28;20041;-77
2022/10/12 03:16:21;;;;;;;1.23;0.88;;;5.70;99.90;;;;;;5029717;28;20049;-78
2022/10/12 03:18:48;;;;;;;1.25;0.80;;;5.80;99.90;;;;;;5012730;28;20068;-76
2022/10/12 03:21:15;;;;;;;1.50;0.80;;;5.80;99.90;;;;;;5045734;28;20045;-77
2022/10/12 03:23:41;;;;;;;1.73;0.70;;;5.80;99.90;;;;;;5028812;28;20519;-78
2022/10/12 03:26:08;;;;;;;1.08;0.70;;;5.90;99.90;;;;;;5029998;28;20053;-77
2022/10/12 03:28:36;;;;;;;1.95;1.00;;;5.90;99.90;;;;;;5028812;28;20041;-79
2022/10/12 03:31:03;;;;;;;0.82;0.70;;;5.90;99.90;;;;;;5047175;28;20060;-77
2022/10/12 03:33:29;;;;;;;0.73;0.60;;;6.00;99.90;;;;;;5044954;28;20045;-77
2022/10/12 03:35:56;;;;;;;0.75;0.70;;;6.10;99.90;;;;;;5047148;28;20056;-77
2022/10/12 03:38:23;;;;;;;1.88;0.70;;;6.10;99.90;;;;;;5047307;28;20148;-77
2022/10/12 03:40:49;;;;;;;0.80;0.65;;;6.20;99.90;;;;;;5047422;28;20037;-77
2022/10/12 03:43:16;;;;;;;1.85;0.90;;;6.30;99.90;;;;;;5040286;28;20494;-77
2022/10/12 03:45:43;;;;;;;1.20;0.60;;;6.30;99.90;;;;;;5046546;28;20095;-77
2022/10/12 03:48:10;;;;;;;1.35;0.70;;;6.40;99.90;;;;;;5046094;28;20044;-78
2022/10/12 03:50:36;;;;;;;1.25;0.80;;;6.40;99.90;;;;;;5046951;28;20045;-77
2022/10/12 03:53:03;;;;;;;1.10;0.75;;;6.50;99.90;;;;;;5043897;28;20071;-78
2022/10/12 03:55:31;;;;;;;1.00;0.70;;;6.50;99.90;;;;;;5047583;28;20049;-78
2022/10/12 03:57:58;;;;;;;1.50;0.70;;;6.60;99.90;;;;;;5025922;28;20049;-78
2022/10/12 04:00:26;;;;;;;1.17;0.77;;;6.60;99.90;;;;;;5042712;28;20103;-77
2022/10/12 04:02:53;;;;;;;0.65;0.52;;;6.60;99.90;;;;;;5028508;28;20064;-77
2022/10/12 04:05:20;;;;;;;0.80;0.50;;;6.60;99.90;;;;;;5029037;28;20045;-77
2022/10/12 04:07:47;;;;;;;0.98;0.70;;;6.70;99.90;;;;;;5028833;28;20041;-78
2022/10/12 04:10:14;;;;;;;1.00;0.70;;;6.70;99.90;;;;;;5045778;28;20052;-78
2022/10/12 04:12:40;;;;;;;1.15;0.80;;;6.70;99.90;;;;;;5046220;28;20048;-77
2022/10/12 04:15:08;;;;;;;0.80;0.60;;;6.80;99.90;;;;;;5046524;28;20058;-78
2022/10/12 04:17:35;;;;;;;0.82;0.60;;;6.80;99.90;;;;;;5049269;28;20050;-79
2022/10/12 04:20:03;;;;;;;0.77;0.50;;;6.80;99.90;;;;;;5046853;28;20542;-79
2022/10/12 04:22:30;;;;;;;1.33;0.70;;;6.80;99.90;;;;;;5029396;28;20493;-77
2022/10/12 04:24:56;;;;;;;0.60;0.57;;;6.90;99.90;;;;;;5046217;28;20064;-78
2022/10/12 04:27:23;;;;;;;1.20;0.95;;;6.90;99.90;;;;;;5050966;28;20051;-78
2022/10/12 04:29:50;;;;;;;0.95;0.50;;;6.90;99.90;;;;;;5056344;28;20045;-77
2022/10/12 04:32:17;;;;;;;0.80;0.52;;;6.90;99.90;;;;;;5062146;28;20483;-77
2022/10/12 04:34:43;;;;;;;0.57;0.50;;;7.00;99.90;;;;;;5025426;28;20054;-78
2022/10/12 04:37:10;;;;;;;0.65;0.50;;;7.00;99.90;;;;;;5050870;28;20148;-77
2022/10/12 04:39:37;;;;;;;0.93;0.60;;;7.00;99.90;;;;;;5064095;28;20060;-78
2022/10/12 04:42:05;;;;;;;0.57;0.47;;;7.00;99.90;;;;;;5064795;28;20431;-78
2022/10/12 04:44:32;;;;;;;1.05;0.60;;;7.10;99.90;;;;;;5027715;28;20045;-77
2022/10/12 04:47:00;;;;;;;0.90;0.60;;;7.10;99.90;;;;;;5018178;28;20045;-77
2022/10/12 04:49:27;;;;;;;1.15;0.68;;;7.10;99.90;;;;;;5037181;28;20235;-77
2022/10/12 04:51:53;;;;;;;0.70;0.40;;;7.20;99.90;;;;;;5034990;28;20052;-77
2022/10/12 04:54:20;;;;;;;0.93;0.40;;;7.20;99.90;;;;;;5027131;28;20369;-77
2022/10/12 04:56:47;;;;;;;0.95;0.63;;;7.30;99.90;;;;;;5005814;28;20053;-77
2022/10/12 04:59:14;;;;;;;0.82;0.60;;;7.30;99.90;;;;;;5028561;28;20247;-77
2022/10/12 05:01:40;;;;;;;0.90;0.55;;;7.30;99.90;;;;;;5045617;28;20048;-78
2022/10/12 05:04:07;;;;;;;0.40;0.40;;;7.30;99.90;;;;;;5045453;28;20053;-77
2022/10/12 05:06:34;;;;;;;1.55;0.60;;;7.30;99.90;;;;;;5058511;28;20044;-75
2022/10/12 05:09:01;;;;;;;0.73;0.40;;;7.40;99.90;;;;;;5051312;28;20045;-77
2022/10/12 05:11:28;;;;;;;1.30;0.95;;;7.40;99.90;;;;;;5024170;28;20049;-76
2022/10/12 05:13:54;;;;;;;1.08;0.47;;;7.40;99.90;;;;;;5040703;28;20049;-77
2022/10/12 05:16:21;;;;;;;1.08;0.60;;;7.30;99.90;;;;;;5047671;28;20045;-77
2022/10/12 05:18:48;;;;;;;0.82;0.70;;;7.30;99.90;;;;;;5031143;28;20135;-76
2022/10/12 05:21:15;;;;;;;1.10;0.68;;;7.30;99.90;;;;;;5023672;28;20053;-77
2022/10/12 05:23:42;;;;;;;1.00;0.63;;;7.30;99.90;;;;;;5036048;28;20049;-77
2022/10/12 05:26:08;;;;;;;1.70;0.60;;;7.30;99.90;;;;;;5005322;28;20504;-76
2022/10/12 05:28:35;;;;;;;0.90;0.70;;;7.30;99.90;;;;;;5024130;28;20072;-77
2022/10/12 05:31:07;;;;;;;1.13;0.65;;;7.30;99.90;;;;;;5024694;28;20045;-77
2022/10/12 05:33:33;;;;;;;1.50;0.85;;;7.20;99.90;;;;;;5020110;28;20049;-77
2022/10/12 05:36:00;;;;;;;0.75;0.63;;;7.20;99.90;;;;;;5022914;28;20045;-77
2022/10/12 05:38:28;;;;;;;2.15;0.73;;;7.20;99.90;;;;;;5018816;28;20562;-77
2022/10/12 05:40:54;;;;;;;1.35;0.95;;;7.20;99.90;;;;;;5035590;28;20049;-77
2022/10/12 05:43:26;;;;;;;0.47;0.32;;;7.20;99.90;;;;;;5037664;28;20508;-77
2022/10/12 05:45:53;;;;;;;0.73;0.52;;;7.20;99.90;;;;;;5018545;28;20049;-77
2022/10/12 05:48:20;;;;;;;1.33;0.73;;;7.20;99.90;;;;;;5028475;28;20072;-77
2022/10/12 05:50:47;;;;;;;0.60;0.60;;;7.20;99.90;;;;;;5035134;28;20055;-76
2022/10/12 05:53:13;;;;;;;0.98;0.80;;;7.20;99.90;;;;;;5017934;28;20054;-76
2022/10/12 05:55:51;;;;;;;1.00;0.80;;;7.20;99.90;;;;;;5016852;28;20207;-77
2022/10/12 05:58:17;;;;;;;1.55;0.50;;;7.30;99.90;;;;;;5018405;28;20045;-76
2022/10/12 06:00:44;;;;;;;1.75;0.70;;;7.30;99.90;;;;;;5031920;28;20152;-77
2022/10/12 06:03:11;;;;;;;1.65;0.65;;;7.30;99.90;;;;;;5026016;28;20143;-76
2022/10/12 06:05:38;;;;;;;0.77;0.70;;;7.30;99.90;;;;;;5019137;28;20148;-77
2022/10/12 06:08:04;;;;;;;1.08;0.75;;;7.30;99.90;;;;;;5036128;28;20480;-76
2022/10/12 06:10:31;;;;;;;1.08;0.73;;;7.40;99.90;;;;;;5018442;28;20052;-77
2022/10/12 06:12:58;;;;;;;0.93;0.65;;;7.40;99.90;;;;;;5026662;28;20164;-77
2022/10/12 06:15:25;;;;;;;1.40;0.77;;;7.40;99.90;;;;;;5016862;28;20084;-78
2022/10/12 06:17:51;;;;;;;0.82;0.57;;;7.50;99.90;;;;;;5021123;28;20492;-77
2022/10/12 06:20:18;;;;;;;1.30;0.75;;;7.50;99.90;;;;;;5029558;28;20080;-77
2022/10/12 06:22:45;;;;;;;1.63;1.10;;;7.60;99.90;;;;;;5036119;28;20049;-78
2022/10/12 06:25:12;;;;;;;1.08;0.90;;;7.60;99.90;;;;;;5055720;28;20064;-78
2022/10/12 06:27:38;;;;;;;1.20;0.70;;;7.60;99.90;;;;;;5047544;28;20053;-77
2022/10/12 06:30:06;;;;;;;2.13;0.90;;;7.70;99.90;;;;;;5035117;28;20079;-77
2022/10/12 06:32:33;;;;;;;0.65;0.57;;;7.70;99.90;;;;;;5017716;28;20072;-77
2022/10/12 06:34:59;;;;;;;1.05;0.70;;;7.70;99.90;;;;;;5004418;28;20373;-77
2022/10/12 06:37:28;;;;;;;1.63;0.80;;;7.80;99.90;;;;;;5034054;28;20552;-77
2022/10/12 06:40:16;;;;;;;0.90;0.80;;;7.80;99.90;;;;;;5033246;28;20052;-77
2022/10/12 06:42:42;;;;;;;1.70;1.00;;;7.90;99.90;;;;;;5032429;28;20044;-78
2022/10/12 06:45:10;;;;;;;1.00;0.75;;;7.90;99.90;;;;;;5010069;28;20048;-77
2022/10/12 06:47:36;;;;;;;1.88;1.00;;;7.90;99.90;;;;;;5031507;28;20044;-77
2022/10/12 06:50:04;;;;;;;2.05;0.90;;;8.00;99.90;;;;;;5033485;28;20053;-77
2022/10/12 06:52:30;;;;;;;1.42;1.08;;;8.00;99.90;;;;;;5037473;28;20097;-77
2022/10/12 06:54:57;;;;;;;1.13;0.77;;;8.10;99.90;;;;;;5016676;28;20119;-77
2022/10/12 06:57:24;;;;;;;3.15;1.83;;;8.10;99.90;;;;;;5056526;28;20149;-77
2022/10/12 06:59:52;;;;;;;1.10;0.63;;;8.20;99.90;;;;;;5004331;28;20053;-77
2022/10/12 07:02:19;;;;;;;1.50;0.88;;;8.20;99.90;;;;;;5037654;28;20073;-77
2022/10/12 07:04:50;;;;;;;2.00;0.98;;;8.30;99.90;;;;;;5017522;28;20052;-76
2022/10/12 07:07:17;;;;;;;2.88;1.02;;;8.30;99.90;;;;;;5022293;28;20045;-77
2022/10/12 07:09:44;;;;;;;1.35;1.00;;;8.40;99.90;;;;;;5034712;28;20150;-76
2022/10/12 07:12:11;;;;;;;1.77;0.90;;;8.40;99.90;;;;;;5039296;28;20069;-76
2022/10/12 07:14:37;;;;;;;1.27;0.90;;;8.50;99.90;;;;;;5034677;28;20463;-76
2022/10/12 07:17:04;;;;;;;1.73;0.73;;;8.50;99.90;;;;;;5017861;28;20056;-77
2022/10/12 07:19:31;;;;;;;1.58;0.82;;;8.60;99.90;;;;;;5010073;28;20136;-77
2022/10/12 07:21:58;;;;;;;0.82;0.73;;;8.60;99.90;;;;;;5018673;28;20049;-77
2022/10/12 07:24:34;;;;;;;1.38;0.77;;;8.70;99.90;;;;;;5032225;28;20049;-77
2022/10/12 07:27:02;;;;;;;1.33;0.90;;;8.80;99.90;;;;;;5020367;28;20534;-76
2022/10/12 07:29:30;;;;;;;1.17;0.77;;;8.80;99.90;;;;;;5003083;28;20057;-77
2022/10/12 07:31:58;;;;;;;1.15;0.88;;;8.90;99.90;;;;;;5024337;28;20160;-76
2022/10/12 07:34:28;;;;;;;1.08;0.98;;;8.90;99.90;;;;;;4997694;28;20072;-76
2022/10/12 07:36:55;;;;;;;1.42;1.20;;;9.00;99.90;;;;;;5038511;28;20048;-76
2022/10/12 07:39:25;;;;;;;2.15;1.30;;;9.10;99.90;;;;;;5008707;28;20048;-76
2022/10/12 07:41:52;;;;;;;1.23;0.93;;;9.10;99.90;;;;;;5020821;28;20049;-76
2022/10/12 07:44:19;;;;;;;1.13;0.80;;;9.20;99.90;;;;;;5021609;28;20055;-76
2022/10/12 07:46:46;;;;;;;1.17;0.80;;;9.30;99.90;;;;;;5052590;28;20129;-73
2022/10/12 07:49:14;;;;;;;0.95;0.47;;;9.40;99.90;;;;;;5018345;28;20059;-73
2022/10/12 07:51:41;;;;;;;1.33;0.63;;;9.50;99.90;;;;;;5016346;28;20402;-73
2022/10/12 07:54:08;;;;;;;1.63;0.82;;;9.60;99.90;;;;;;5019053;28;20045;-73
2022/10/12 07:56:35;;;;;;;0.52;0.43;;;9.70;99.90;;;;;;5034235;28;20165;-74
2022/10/12 07:59:01;;;;;;;1.52;0.88;;;9.80;99.90;;;;;;5034435;28;20250;-74
2022/10/12 08:01:29;;;;;;;1.00;0.50;;;9.90;99.90;;;;;;5039271;28;20061;-73
2022/10/12 08:03:56;;;;;;;1.08;0.82;;;10.00;99.90;;;;;;4999349;28;20127;-74
2022/10/12 08:06:29;;;;;;;0.60;0.45;;;10.10;99.90;;;;;;5018969;28;20061;-74
2022/10/12 08:08:59;;;;;;;1.45;0.73;;;10.30;99.90;;;;;;5020659;28;20566;-74
2022/10/12 08:11:26;;;;;;;1.88;0.90;;;10.40;99.90;;;;;;5020969;28;20057;-73
2022/10/12 08:13:54;;;;;;;1.00;0.70;;;10.50;99.90;;;;;;5018390;28;20041;-73
2022/10/12 08:16:21;;;;;;;1.80;0.68;;;10.60;99.90;;;;;;5053037;28;20223;-73
2022/10/12 08:18:48;;;;;;;0.80;0.52;;;10.70;99.90;;;;;;5017425;28;20052;-76
2022/10/12 08:21:15;;;;;;;1.13;0.70;;;10.80;99.90;;;;;;5020400;28;20132;-76
2022/10/12 08:23:43;;;;;;;1.35;0.73;;;11.00;99.90;;;;;;5009100;28;20049;-76
2022/10/12 08:26:11;;;;;;;1.75;0.80;;;11.20;99.90;;;;;;5018965;28;20132;-76
2022/10/12 08:28:37;;;;;;;2.22;0.80;;;11.40;99.90;;;;;;5036878;28;20083;-76
2022/10/12 08:31:06;;;;;;;1.17;0.95;;;11.50;99.90;;;;;;5005034;28;20482;-76
2022/10/12 08:33:33;;;;;;;1.25;0.80;;;11.60;99.90;;;;;;5015609;28;20168;-76
2022/10/12 08:36:02;;;;;;;1.58;0.82;;;11.70;99.90;;;;;;5008270;28;20151;-77
2022/10/12 08:38:30;;;;;;;1.60;0.75;;;11.80;99.90;;;;;;5023823;28;20118;-76
2022/10/12 08:41:02;;;;;;;1.98;1.00;;;11.90;99.90;;;;;;5002564;28;20511;-76
2022/10/12 08:43:44;;;;;;;2.30;1.10;;;12.00;99.90;;;;;;5031997;28;20139;-77
2022/10/12 08:46:11;;;;;;;1.45;0.95;;;12.20;99.90;;;;;;5040914;28;20504;-77
2022/10/12 08:48:49;;;;;;;1.00;0.85;;;12.30;99.90;;;;;;5015318;28;20080;-77
2022/10/12 08:51:19;;;;;;;1.45;0.88;;;12.40;99.90;;;;;;5019935;28;20053;-76
2022/10/12 08:53:48;;;;;;;1.25;0.70;;;12.50;99.90;;;;;;5015311;28;20129;-75
2022/10/12 08:56:17;;;;;;;1.00;0.63;;;12.60;99.90;;;;;;5049719;28;20147;-77
2022/10/12 08:58:44;;;;;;;2.20;0.80;;;12.60;99.90;;;;;;5019902;28;20103;-77
2022/10/12 09:01:37;;;;;;;1.00;0.60;;;12.70;99.90;;;;;;5006553;28;20657;-78
2022/10/12 09:04:28;;;;;;;1.13;0.73;;;12.70;99.90;;;;;;5038801;28;20135;-76
2022/10/12 09:07:15;;;;;;;0.80;0.60;;;12.80;99.90;;;;;;5038234;28;20063;-77
2022/10/12 09:10:01;;;;;;;1.02;0.93;;;12.90;99.90;;;;;;5031948;28;20072;-76
2022/10/12 09:12:49;;;;;;;1.15;0.77;;;12.90;99.90;;;;;;5030247;28;20140;-76
2022/10/12 09:15:28;;;;;;;1.13;0.60;;;12.90;99.90;;;;;;5041243;28;20626;-76
2022/10/12 09:17:56;;;;;;;1.63;0.90;;;12.90;99.90;;;;;;5052716;28;20129;-77
2022/10/12 09:20:52;;;;;;;0.40;0.40;;;12.90;99.90;;;;;;5044437;28;20132;-77
2022/10/12 09:23:27;;;;;;;1.00;0.63;;;13.00;99.90;;;;;;5003912;28;20156;-76
2022/10/12 09:25:56;;;;;;;0.75;0.68;;;13.10;99.90;;;;;;5003897;28;20147;-77
2022/10/12 09:28:33;;;;;;;1.42;0.82;;;13.20;99.90;;;;;;5034786;28;20484;-77
2022/10/12 09:31:28;;;;;;;1.00;0.73;;;13.30;99.90;;;;;;5017907;28;20059;-77
2022/10/12 09:33:59;;;;;;;2.67;1.10;;;13.30;99.90;;;;;;5037679;28;20048;-77
2022/10/12 09:36:27;;;;;;;1.35;0.80;;;13.40;99.90;;;;;;5021076;28;20131;-77
2022/10/12 09:38:54;;;;;;;1.23;0.70;;;13.40;99.90;;;;;;5020802;28;20037;-77
2022/10/12 09:41:22;;;;;;;1.33;0.90;;;13.50;99.90;;;;;;5021459;28;20059;-77
2022/10/12 09:43:52;;;;;;;1.05;0.70;;;13.60;99.90;;;;;;5008774;28;20133;-77
2022/10/12 09:46:47;;;;;;;1.50;0.82;;;13.70;99.90;;;;;;5013469;28;20052;-77
2022/10/12 09:49:13;;;;;;;1.98;0.90;;;13.80;99.90;;;;;;5040162;28;20048;-77
2022/10/12 09:51:42;;;;;;;1.10;0.90;;;14.00;99.90;;;;;;5040992;28;20182;-77
2022/10/12 09:54:15;;;;;;;1.23;0.88;;;14.20;99.90;;;;;;5045285;28;20048;-78
2022/10/12 09:56:48;;;;;;;1.90;0.80;;;14.40;99.90;;;;;;5025627;28;20107;-77
2022/10/12 09:59:24;;;;;;;1.20;0.80;;;14.70;99.90;;;;;;5042214;28;20061;-78
2022/10/12 10:02:09;;;;;;;3.40;1.20;;;14.90;99.90;;;;;;5043916;28;20049;-80
2022/10/12 10:04:37;;;;;;;1.00;0.57;;;15.10;99.90;;;;;;5022871;28;20053;-79
2022/10/12 10:07:19;;;;;;;1.15;0.75;;;15.20;99.90;;;;;;5017350;28;20053;-83
2022/10/12 10:09:46;;;;;;;2.08;0.88;;;15.40;99.90;;;;;;5042468;28;20315;-78
2022/10/12 10:12:21;;;;;;;1.42;1.10;;;15.50;99.90;;;;;;5020716;28;20080;-78
2022/10/12 10:14:48;;;;;;;1.73;1.20;;;15.60;99.90;;;;;;5013807;28;20717;-79
2022/10/12 10:17:22;;;;;;;2.55;1.30;;;15.50;99.90;;;;;;5032718;28;20049;-79
2022/10/12 10:19:50;;;;;;;1.45;0.93;;;15.50;99.90;;;;;;5019918;28;20053;-79
2022/10/12 10:22:17;;;;;;;1.42;1.02;;;15.50;99.90;;;;;;5036681;28;20057;-79
2022/10/12 10:24:49;;;;;;;1.35;0.70;;;15.60;99.90;;;;;;5015958;28;20061;-79
2022/10/12 10:27:35;;;;;;;2.30;1.27;;;15.70;99.90;;;;;;5025627;28;20565;-79
2022/10/12 10:30:15;;;;;;;1.73;0.90;;;15.90;99.90;;;;;;5022904;28;20049;-79
2022/10/12 10:33:15;;;;;;;1.73;1.00;;;16.00;99.90;;;;;;5031018;28;20452;-79
2022/10/12 10:36:01;;;;;;;1.75;1.02;;;16.20;99.90;;;;;;5032773;28;20077;-79
2022/10/12 10:38:58;;;;;;;2.10;1.30;;;16.40;99.90;;;;;;5007939;28;20587;-79
2022/10/12 10:41:36;;;;;;;2.38;1.13;;;16.70;99.90;;;;;;5016615;28;20057;-78
2022/10/12 10:44:03;;;;;;;1.60;0.90;;;16.90;99.90;;;;;;5015861;28;20056;-78
2022/10/12 10:46:33;;;;;;;2.47;1.42;;;17.00;99.90;;;;;;5028098;28;20052;-78
2022/10/12 10:49:05;;;;;;;3.13;1.45;;;16.90;99.90;;;;;;5036005;28;20057;-79
2022/10/12 10:51:43;;;;;;;1.27;0.88;;;16.90;99.90;;;;;;5034814;28;20665;-79
2022/10/12 10:54:37;;;;;;;1.45;0.80;;;17.00;99.90;;;;;;5033023;28;20056;-79
2022/10/12 10:57:25;;;;;;;1.63;1.10;;;17.20;99.90;;;;;;5017039;28;20115;-79
2022/10/12 10:59:53;;;;;;;2.55;1.23;;;17.20;99.90;;;;;;5037212;28;20138;-79
2022/10/12 11:02:28;;;;;;;1.90;0.85;;;17.30;99.90;;;;;;5019648;28;20696;-79
2022/10/12 11:05:10;;;;;;;2.15;1.15;;;17.50;99.90;;;;;;5003443;28;20053;-79
2022/10/12 11:07:44;;;;;;;2.53;1.25;;;17.50;99.90;;;;;;4989607;28;20061;-79
2022/10/12 11:10:28;;;;;;;1.45;0.98;;;17.60;99.90;;;;;;5030141;28;20057;-79
2022/10/12 11:13:19;;;;;;;1.50;1.15;;;17.50;99.90;;;;;;5021507;28;20057;-78
2022/10/12 11:15:49;;;;;;;2.13;1.20;;;17.60;99.90;;;;;;5029735;28;20055;-78
2022/10/12 11:18:19;;;;;;;1.30;1.20;;;17.60;99.90;;;;;;5019855;28;20049;-78
2022/10/12 11:21:07;;;;;;;1.38;0.90;;;17.60;99.90;;;;;;5018327;28;20053;-79
2022/10/12 11:23:58;;;;;;;2.15;0.93;;;17.60;99.90;;;;;;5021950;28;20189;-78
2022/10/12 11:26:38;;;;;;;1.73;0.90;;;17.80;99.90;;;;;;5025549;28;20103;-78
2022/10/12 11:29:05;;;;;;;1.42;0.93;;;18.10;99.90;;;;;;5019945;28;20508;-78
2022/10/12 11:31:38;;;;;;;1.38;1.00;;;18.20;99.90;;;;;;5010628;28;20227;-78
2022/10/12 11:34:06;;;;;;;2.80;1.05;;;18.30;99.90;;;;;;5018780;28;20616;-77
2022/10/12 11:36:40;;;;;;;1.40;0.98;;;18.40;99.90;;;;;;5025818;28;20048;-78
2022/10/12 11:39:33;;;;;;;1.55;0.98;;;18.50;99.90;;;;;;5029085;28;20060;-78
2022/10/12 11:42:01;;;;;;;2.20;1.25;;;18.70;99.90;;;;;;5002856;28;20085;-78
2022/10/12 11:44:47;;;;;;;2.63;1.20;;;18.80;99.90;;;;;;5021531;28;20420;-77
2022/10/12 11:47:33;;;;;;;1.85;1.27;;;18.80;99.90;;;;;;5038521;28;21078;-78
2022/10/12 11:50:17;;;;;;;1.70;1.13;;;18.80;99.90;;;;;;5019174;28;20499;-78
2022/10/12 11:52:45;;;;;;;1.60;0.93;;;19.00;99.90;;;;;;5020062;28;20056;-77
2022/10/12 11:55:30;;;;;;;1.08;0.80;;;19.10;99.90;;;;;;5023296;28;20044;-77
2022/10/12 11:57:59;;;;;;;1.05;0.93;;;19.30;99.90;;;;;;5036845;28;20052;-79
2022/10/12 12:01:01;;;;;;;1.30;0.80;;;19.70;99.90;;;;;;5022353;28;20063;-78
2022/10/12 12:03:28;;;;;;;1.33;1.00;;;20.00;99.90;;;;;;5049048;28;20063;-78
2022/10/12 12:05:55;;;;;;;1.83;1.00;;;20.30;99.90;;;;;;5039532;28;20378;-78
2022/10/12 12:08:43;;;;;;;1.58;1.02;;;20.30;99.90;;;;;;5021024;28;20143;-78
2022/10/12 12:11:20;;;;;;;1.13;0.80;;;20.40;99.90;;;;;;5016505;28;20400;-78
2022/10/12 12:13:47;;;;;;;1.65;0.82;;;20.40;99.90;;;;;;5022564;28;20151;-78
2022/10/12 12:16:17;;;;;;;1.33;0.70;;;20.40;99.90;;;;;;5042773;28;20099;-78
2022/10/12 12:19:13;;;;;;;1.98;0.98;;;20.20;99.90;;;;;;5040122;28;20075;-78
2022/10/12 12:22:19;;;;;;;1.75;0.98;;;19.90;99.90;;;;;;5038306;28;20896;-78
2022/10/12 12:24:55;;;;;;;1.00;0.77;;;19.70;99.90;;;;;;5043029;28;20052;-77
2022/10/12 12:27:26;;;;;;;2.60;1.00;;;19.50;99.90;;;;;;5036528;28;20143;-77
2022/10/12 12:29:53;;;;;;;3.13;1.05;;;19.20;99.90;;;;;;5050166;28;20364;-79
2022/10/12 12:32:20;;;;;;;0.80;0.55;;;19.10;99.90;;;;;;5036221;28;20504;-78
2022/10/12 12:34:54;;;;;;;1.90;1.13;;;19.10;99.90;;;;;;5024430;28;20117;-79
2022/10/12 12:37:27;;;;;;;1.50;0.90;;;19.10;99.90;;;;;;5034901;28;20072;-79
2022/10/12 12:39:55;;;;;;;1.30;1.00;;;19.70;99.90;;;;;;5018823;28;20779;-78
2022/10/12 12:42:31;;;;;;;2.03;1.10;;;20.20;99.90;;;;;;5010981;28;20385;-79
2022/10/12 12:45:29;;;;;;;2.03;1.00;;;20.60;99.90;;;;;;5020619;28;20160;-77
2022/10/12 12:47:56;;;;;;;2.28;1.00;;;20.80;99.90;;;;;;5014466;28;20059;-78
2022/10/12 12:50:33;;;;;;;1.48;0.80;;;20.70;99.90;;;;;;5037492;28;20084;-77
2022/10/12 12:53:18;;;;;;;1.30;0.70;;;20.60;99.90;;;;;;5037055;28;20059;-77
2022/10/12 12:55:53;;;;;;;1.10;0.80;;;20.50;99.90;;;;;;5001891;28;20073;-77
2022/10/12 12:58:28;;;;;;;1.20;0.88;;;20.30;99.90;;;;;;5017940;28;20386;-77
2022/10/12 13:01:11;;;;;;;1.02;0.57;;;20.20;99.90;;;;;;5038083;28;20075;-77
2022/10/12 13:03:55;;;;;;;0.80;0.60;;;20.10;99.90;;;;;;5032990;28;20051;-77
2022/10/12 13:07:05;;;;;;;0.65;0.50;;;20.30;99.90;;;;;;5035968;28;20045;-78
2022/10/12 13:09:59;;;;;;;2.13;0.80;;;20.50;99.90;;;;;;5021703;28;20531;-71
2022/10/12 13:12:50;;;;;;;1.50;0.90;;;20.80;99.90;;;;;;5039074;28;20061;-81
2022/10/12 13:15:29;;;;;;;1.92;1.00;;;20.40;99.90;;;;;;5036061;28;20766;-75
2022/10/12 13:18:14;;;;;;;2.33;1.10;;;20.10;99.90;;;;;;5027545;28;20576;-74